createdAt,value
2017-06-30T09:47:38.710Z,21.00
2017-06-30T09:50:07.607Z,20.20
2017-06-30T09:55:54.300Z,18.10
2017-06-30T09:58:22.065Z,17.70
2017-06-30T10:00:49.830Z,17.40
2017-06-30T10:03:17.659Z,17.20
2017-06-30T10:05:45.727Z,17.30
2017-06-30T10:08:14.317Z,17.40
2017-06-30T10:10:42.343Z,17.60
2017-06-30T10:13:10.163Z,17.50
2017-06-30T10:15:38.118Z,17.60
2017-06-30T10:18:06.161Z,17.80
2017-06-30T10:20:33.939Z,18.00
2017-06-30T10:23:01.783Z,17.80
2017-06-30T10:25:29.569Z,17.60
2017-06-30T10:27:57.388Z,17.30
2017-06-30T10:30:25.272Z,17.20
2017-06-30T10:32:53.383Z,17.10
2017-06-30T10:35:21.355Z,17.00
2017-06-30T10:37:49.490Z,17.20
2017-06-30T10:40:17.251Z,17.60
2017-06-30T10:42:45.043Z,17.60
2017-06-30T10:45:13.111Z,17.90
2017-06-30T10:47:40.889Z,17.70
2017-06-30T10:50:08.637Z,17.70
2017-06-30T10:52:36.421Z,17.60
2017-06-30T10:55:04.218Z,17.10
2017-06-30T10:57:31.985Z,16.50
2017-06-30T10:59:59.790Z,16.10
2017-06-30T11:02:27.598Z,15.80
2017-06-30T11:04:55.357Z,15.70
2017-06-30T11:07:23.887Z,15.50
2017-06-30T11:09:53.028Z,15.40
2017-06-30T11:12:20.844Z,15.20
2017-06-30T11:14:48.607Z,15.10
2017-06-30T11:17:16.370Z,15.00
2017-06-30T11:19:44.264Z,15.00
2017-06-30T11:22:12.020Z,15.20
2017-06-30T11:24:39.789Z,15.30
2017-06-30T11:27:07.593Z,15.60
2017-06-30T11:29:36.123Z,16.70
2017-06-30T11:32:03.927Z,16.70
2017-06-30T11:34:31.671Z,17.40
2017-06-30T11:36:59.469Z,17.90
2017-06-30T11:39:27.419Z,18.40
2017-06-30T11:41:55.179Z,18.60
2017-06-30T11:44:23.021Z,18.30
2017-06-30T11:46:50.845Z,18.60
2017-06-30T11:49:18.616Z,18.30
2017-06-30T11:51:46.458Z,18.40
2017-06-30T11:54:14.698Z,18.30
2017-06-30T11:56:42.582Z,18.40
2017-06-30T11:59:10.416Z,18.30
2017-06-30T12:01:39.216Z,18.30
2017-06-30T12:04:06.980Z,18.00
2017-06-30T12:06:34.788Z,17.40
2017-06-30T12:09:02.627Z,17.00
2017-06-30T12:11:30.407Z,16.60
2017-06-30T12:13:58.192Z,16.20
2017-06-30T12:16:25.997Z,15.90
2017-06-30T12:18:53.783Z,15.80
2017-06-30T12:21:21.706Z,15.70
2017-06-30T12:23:49.479Z,15.80
2017-06-30T12:26:17.303Z,16.00
2017-06-30T12:28:45.268Z,16.30
2017-06-30T12:31:16.233Z,16.50
2017-06-30T12:33:44.048Z,16.60
2017-06-30T12:36:11.992Z,16.90
2017-06-30T12:38:39.776Z,17.30
2017-06-30T12:41:07.559Z,18.10
2017-06-30T12:43:36.210Z,19.20
2017-06-30T12:46:04.008Z,19.80
2017-06-30T12:48:31.807Z,20.30
2017-06-30T12:51:00.485Z,20.10
2017-06-30T12:53:28.235Z,20.10
2017-06-30T12:55:55.991Z,19.90
2017-06-30T12:58:23.792Z,19.60
2017-06-30T13:00:51.560Z,19.20
2017-06-30T13:03:19.467Z,19.00
2017-06-30T13:05:47.283Z,18.80
2017-06-30T13:08:15.056Z,18.60
2017-06-30T13:10:42.888Z,18.60
2017-06-30T13:13:11.113Z,18.30
2017-06-30T13:15:38.940Z,18.30
2017-06-30T13:18:06.724Z,18.40
2017-06-30T13:20:34.518Z,18.20
2017-06-30T13:23:03.484Z,18.10
2017-06-30T13:25:31.284Z,17.90
2017-06-30T13:27:59.054Z,17.70
2017-06-30T13:30:26.884Z,17.80
2017-06-30T13:32:54.773Z,18.20
2017-06-30T13:35:22.574Z,18.80
2017-06-30T13:37:50.377Z,19.40
2017-06-30T13:40:18.234Z,19.70
2017-06-30T13:42:46.074Z,19.80
2017-06-30T13:45:13.925Z,19.60
2017-06-30T13:47:41.737Z,19.20
2017-06-30T13:50:09.503Z,19.00
2017-06-30T13:52:37.360Z,19.20
2017-06-30T13:55:05.134Z,19.00
2017-06-30T13:57:32.960Z,18.60
2017-06-30T14:00:00.735Z,18.50
2017-06-30T14:02:29.608Z,18.60
2017-06-30T14:04:57.484Z,19.00
2017-06-30T14:07:25.259Z,19.40
2017-06-30T14:09:53.037Z,19.40
2017-06-30T14:12:21.647Z,18.60
2017-06-30T14:14:49.499Z,18.60
2017-06-30T14:17:17.445Z,18.10
2017-06-30T14:19:45.271Z,17.90
2017-06-30T14:22:13.087Z,18.10
2017-06-30T14:24:40.874Z,18.40
2017-06-30T14:27:08.673Z,18.70
2017-06-30T14:29:36.482Z,18.90
2017-06-30T14:32:04.240Z,19.20
2017-06-30T14:34:32.025Z,19.30
2017-06-30T14:36:59.852Z,19.10
2017-06-30T14:39:27.743Z,18.70
2017-06-30T14:41:55.692Z,18.40
2017-06-30T14:44:23.529Z,18.10
2017-06-30T14:46:51.424Z,18.10
2017-06-30T14:49:19.232Z,18.00
2017-06-30T14:51:47.009Z,17.80
2017-06-30T14:54:14.921Z,17.90
2017-06-30T14:56:42.689Z,18.00
2017-06-30T14:59:10.474Z,18.20
2017-06-30T15:01:38.544Z,18.30
2017-06-30T15:04:06.365Z,18.60
2017-06-30T15:06:34.120Z,19.00
2017-06-30T15:09:01.973Z,19.20
2017-06-30T15:11:29.819Z,19.00
2017-06-30T15:13:57.632Z,18.70
2017-06-30T15:16:25.475Z,18.50
2017-06-30T15:18:53.325Z,18.20
2017-06-30T15:21:21.074Z,18.00
2017-06-30T15:23:48.938Z,17.90
2017-06-30T15:26:16.674Z,17.80
2017-06-30T15:28:44.539Z,18.10
2017-06-30T15:31:12.329Z,18.50
2017-06-30T15:33:40.858Z,19.40
2017-06-30T15:36:08.645Z,19.40
2017-06-30T15:38:36.458Z,20.10
2017-06-30T15:41:04.248Z,20.70
2017-06-30T15:43:32.820Z,20.50
2017-06-30T15:46:00.616Z,20.50
2017-06-30T15:48:28.451Z,20.40
2017-06-30T15:50:56.251Z,20.10
2017-06-30T15:53:24.046Z,20.10
2017-06-30T15:55:51.943Z,20.30
2017-06-30T15:58:19.711Z,20.30
2017-06-30T16:00:47.464Z,20.00
2017-06-30T16:03:15.303Z,19.70
2017-06-30T16:05:43.041Z,19.30
2017-06-30T16:08:10.922Z,18.90
2017-06-30T16:10:38.720Z,18.70
2017-06-30T16:13:06.470Z,18.50
2017-06-30T16:15:34.287Z,18.50
2017-06-30T16:18:04.267Z,18.60
2017-06-30T16:20:32.148Z,18.60
2017-06-30T16:22:59.899Z,18.40
2017-06-30T16:25:27.660Z,18.10
2017-06-30T16:27:55.553Z,18.10
2017-06-30T16:30:23.305Z,18.00
2017-06-30T16:32:51.491Z,18.20
2017-06-30T16:35:19.383Z,18.40
2017-06-30T16:37:47.131Z,18.60
2017-06-30T16:40:14.880Z,18.80
2017-06-30T16:42:42.701Z,19.10
2017-06-30T16:45:10.524Z,19.20
2017-06-30T16:47:38.279Z,19.00
2017-06-30T16:50:06.077Z,18.80
2017-06-30T16:52:33.966Z,18.70
2017-06-30T16:55:03.065Z,18.50
2017-06-30T16:57:30.925Z,18.50
2017-06-30T16:59:58.675Z,18.40
2017-06-30T17:02:29.688Z,18.40
2017-06-30T17:04:57.639Z,18.40
2017-06-30T17:07:26.180Z,18.00
2017-06-30T17:09:53.965Z,18.00
2017-06-30T17:12:21.756Z,17.90
2017-06-30T17:14:49.519Z,17.90
2017-06-30T17:17:17.316Z,17.70
2017-06-30T17:19:45.076Z,17.50
2017-06-30T17:22:12.910Z,17.30
2017-06-30T17:24:41.422Z,17.10
2017-06-30T17:27:09.247Z,17.10
2017-06-30T17:29:38.498Z,17.10
2017-06-30T17:32:06.301Z,17.20
2017-06-30T17:34:34.077Z,17.10
2017-06-30T17:37:02.004Z,17.10
2017-06-30T17:39:29.819Z,17.10
2017-06-30T17:41:57.791Z,17.10
2017-06-30T17:44:25.628Z,17.10
2017-06-30T17:46:53.457Z,17.00
2017-06-30T17:49:21.333Z,16.90
2017-06-30T17:51:49.085Z,16.90
2017-06-30T17:54:17.549Z,16.80
2017-06-30T17:56:45.684Z,16.80
2017-06-30T17:59:13.444Z,16.80
2017-06-30T18:01:41.208Z,16.70
2017-06-30T18:04:12.054Z,16.70
2017-06-30T18:06:39.865Z,16.70
2017-06-30T18:09:16.264Z,16.50
2017-06-30T18:11:44.048Z,16.50
2017-06-30T18:14:11.864Z,16.40
2017-06-30T18:16:39.717Z,16.40
2017-06-30T18:19:07.487Z,16.40
2017-06-30T18:21:35.340Z,16.30
2017-06-30T18:24:04.322Z,16.20
2017-06-30T18:26:32.109Z,16.20
2017-06-30T18:29:00.624Z,16.30
2017-06-30T18:31:28.417Z,16.30
2017-06-30T18:33:56.205Z,16.30
2017-06-30T18:36:24.006Z,16.20
2017-06-30T18:38:51.757Z,16.10
2017-06-30T18:41:19.599Z,16.10
2017-06-30T18:43:47.423Z,16.00
2017-06-30T18:46:15.215Z,16.00
2017-06-30T18:48:43.299Z,16.00
2017-06-30T18:51:11.094Z,15.90
2017-06-30T18:53:38.839Z,16.00
2017-06-30T18:56:06.640Z,15.90
2017-06-30T18:58:34.436Z,15.90
2017-06-30T19:01:03.179Z,15.80
2017-06-30T19:03:30.940Z,15.70
2017-06-30T19:05:58.884Z,15.60
2017-06-30T19:08:26.639Z,15.60
2017-06-30T19:10:54.390Z,15.60
2017-06-30T19:13:24.998Z,15.50
2017-06-30T19:15:52.772Z,15.40
2017-06-30T19:18:20.580Z,15.30
2017-06-30T19:20:48.335Z,15.20
2017-06-30T19:23:16.141Z,15.10
2017-06-30T19:25:43.949Z,15.10
2017-06-30T19:28:11.766Z,15.00
2017-06-30T19:30:39.520Z,14.90
2017-06-30T19:33:07.311Z,14.80
2017-06-30T19:35:35.775Z,14.80
2017-06-30T19:38:03.580Z,14.60
2017-06-30T19:40:31.382Z,14.60
2017-06-30T19:42:59.178Z,14.50
2017-06-30T19:45:26.947Z,14.50
2017-06-30T19:47:54.822Z,14.40
2017-06-30T19:50:22.593Z,14.30
2017-06-30T19:52:50.367Z,14.30
2017-06-30T19:55:18.188Z,14.20
2017-06-30T19:57:45.993Z,14.20
2017-06-30T20:00:13.834Z,14.20
2017-06-30T20:02:41.712Z,14.20
2017-06-30T20:05:10.633Z,14.10
2017-06-30T20:07:38.508Z,14.10
2017-06-30T20:10:08.138Z,14.00
2017-06-30T20:12:36.000Z,13.90
2017-06-30T20:15:03.755Z,13.90
2017-06-30T20:17:31.494Z,13.90
2017-06-30T20:19:59.633Z,13.80
2017-06-30T20:22:27.441Z,13.80
2017-06-30T20:25:00.177Z,13.70
2017-06-30T20:27:40.958Z,13.70
2017-06-30T20:30:13.529Z,13.70
2017-06-30T20:32:43.377Z,13.70
2017-06-30T20:35:11.230Z,13.70
2017-06-30T20:37:38.985Z,13.60
2017-06-30T20:40:06.736Z,13.60
2017-06-30T20:42:34.583Z,13.60
2017-06-30T20:45:03.444Z,13.50
2017-06-30T20:47:31.866Z,13.50
2017-06-30T20:49:59.632Z,13.40
2017-06-30T20:52:27.451Z,13.40
2017-06-30T20:54:55.257Z,13.40
2017-06-30T20:57:23.119Z,13.50
2017-06-30T20:59:50.890Z,13.50
2017-06-30T21:02:18.748Z,13.50
2017-06-30T21:04:48.796Z,13.60
2017-06-30T21:07:16.581Z,13.60
2017-06-30T21:09:44.738Z,13.60
2017-06-30T21:12:13.176Z,13.60
2017-06-30T21:14:41.135Z,13.60
2017-06-30T21:17:09.078Z,13.70
2017-06-30T21:19:36.964Z,13.60
2017-06-30T21:22:04.712Z,13.70
2017-06-30T21:24:32.529Z,13.70
2017-06-30T21:27:00.287Z,13.70
2017-06-30T21:29:28.040Z,13.80
2017-06-30T21:31:55.875Z,13.80
2017-06-30T21:34:23.625Z,13.90
2017-06-30T21:36:51.444Z,13.90
2017-06-30T21:39:20.000Z,13.90
2017-06-30T21:41:48.110Z,13.90
2017-06-30T21:44:16.308Z,13.90
2017-06-30T21:46:44.270Z,13.90
2017-06-30T21:49:12.052Z,13.90
2017-06-30T21:51:39.815Z,13.90
2017-06-30T21:54:07.609Z,13.80
2017-06-30T21:56:35.418Z,13.80
2017-06-30T21:59:03.267Z,13.80
2017-06-30T22:01:31.032Z,13.70
2017-06-30T22:03:58.931Z,13.70
2017-06-30T22:06:29.402Z,13.70
2017-06-30T22:08:57.164Z,13.70
2017-06-30T22:11:24.937Z,13.70
2017-06-30T22:13:52.726Z,13.70
2017-06-30T22:16:20.519Z,13.70
2017-06-30T22:18:48.480Z,13.70
2017-06-30T22:21:16.225Z,13.80
2017-06-30T22:23:44.020Z,13.70
2017-06-30T22:26:11.936Z,13.70
2017-06-30T22:28:39.722Z,13.70
2017-06-30T22:31:07.568Z,13.70
2017-06-30T22:33:36.098Z,13.60
2017-06-30T22:36:05.323Z,13.60
2017-06-30T22:38:33.101Z,13.60
2017-06-30T22:41:02.355Z,13.50
2017-06-30T22:43:30.159Z,13.50
2017-06-30T22:45:57.980Z,13.50
2017-06-30T22:48:25.728Z,13.40
2017-06-30T22:50:53.488Z,13.40
2017-06-30T22:53:21.462Z,13.40
2017-06-30T22:55:49.215Z,13.30
2017-06-30T22:58:17.742Z,13.30
2017-06-30T23:00:45.547Z,13.30
2017-06-30T23:03:13.302Z,13.30
2017-06-30T23:05:41.057Z,13.30
2017-06-30T23:08:08.860Z,13.20
2017-06-30T23:10:36.667Z,13.20
2017-06-30T23:13:04.412Z,13.20
2017-06-30T23:15:32.171Z,13.20
2017-06-30T23:18:00.000Z,13.10
2017-06-30T23:20:27.805Z,13.10
2017-06-30T23:22:56.319Z,13.20
2017-06-30T23:25:24.069Z,13.10
2017-06-30T23:27:52.735Z,13.10
2017-06-30T23:30:20.504Z,13.00
2017-06-30T23:32:48.324Z,13.10
2017-06-30T23:35:16.885Z,13.00
2017-06-30T23:37:44.633Z,13.00
2017-06-30T23:40:12.427Z,12.90
2017-06-30T23:42:40.221Z,12.90
2017-06-30T23:45:07.981Z,12.90
2017-06-30T23:47:39.127Z,12.90
2017-06-30T23:50:06.988Z,12.80
2017-06-30T23:52:35.502Z,12.80
2017-06-30T23:55:04.022Z,12.90
2017-06-30T23:57:31.915Z,12.90
2017-06-30T23:59:59.712Z,12.80
